Skip Navigation Links
NOAA logo - Click to go to the NOAA homepage
NOAA's National Weather Service
Alaska Aviation Weather Unit
  NWS logo - Click to go to the NWS homepage
Left Navbar Graphic     08 AKDT = 16 GMT

   
NOAA is celebrating 200 years of science, service, and stewardship. Visit the NOAA 200th celebration Web site to learn more.
USA.gov is the U.S. Government's official Web portal to all Federal, state and local government Web resources and services.
Facebook
NWS on Facebook

Important Change Regarding the AAWU Web Presence

 

Over the last several months, the AAWU has been working to navigate its webpages to a nationally supported server. Security, as well as other needs, have necessitated the change.  In the process, we have made an effort to enhance the functionality of our website, as well as some of our products. As of June 20, 2017, aawu.arh.noaa.gov will be discontinued. The new AAWU web address is weather.gov/aawu. It is now live and will run in-parallel with the old site until it is discontinued. Please send any feedback or questions regarding the new webpages to nws.ar.aawu.webauthors@noaa.gov.  Thank you for your patience during this time of transition.
AAWU Home :: Display TAF Add Bookmark
PADK 231016Z AUTO 25011KT 10SM SCT018 BKN025 OVC050 03/M01
     A2985=

PADK 231036Z AUTO 26009KT 10SM SCT009 BKN018 OVC050 03/M02
     A2984=

METAR PADK 231056Z AUTO 26007KT 10SM FEW012 OVC060 03/M02 A2983=

PADK 231116Z AUTO 27009KT 10SM BKN012 OVC060 03/M02 A2984=

PADK 231136Z AUTO 27008KT 10SM SCT012 BKN045 OVC070 03/M02
     A2984=

METAR PADK 231156Z AUTO 25010KT 9SM FEW010 SCT047 OVC055 03/M02
     A2983=

PADK 231216Z AUTO 26009KT 10SM OVC050 03/M02 A2983=

PADK 231236Z AUTO 28009KT 10SM BKN010 OVC050 03/M02 A2983=

METAR PADK 231256Z AUTO 25010KT 10SM SCT010 BKN025 OVC060 03/M01
     A2983=

PADK 231316Z AUTO 24013KT 10SM FEW026 FEW033 OVC065 03/M01
     A2983=

PADK 231336Z AUTO 24012KT 10SM FEW046 BKN065 OVC070 03/M02
     A2984=

METAR PADK 231356Z AUTO 24015KT 10SM OVC075 03/M01 A2983=

PADK 231416Z AUTO 24013KT 10SM BKN075 OVC110 03/M02 A2984=

PADK 231436Z AUTO 25011KT 10SM OVC100 03/M02 A2983=

METAR PADK 231456Z AUTO 24012KT 10SM OVC100 03/M02 A2984=

PADK 231516Z AUTO 24011KT 10SM OVC100 03/M02 A2984=

PADK 231536Z AUTO 24009KT 10SM BKN100 03/M02 A2983=

METAR PADK 231556Z AUTO 25009KT 10SM BKN100 03/M02 A2984=

PADK 231616Z AUTO 25007KT 10SM SCT100 03/M02 A2984=

PADK 231636Z AUTO 26007KT 10SM SCT100 03/M02 A2985=


NOAA's National Weather Service
Alaska Aviation Weather Unit
6930 Sand Lake Road
Anchorage, AK 99502-1845
Disclaimer
Credits
Glossary
Privacy Policy
About Us
Career Opportunities
Contact AAWU Internet Services Site last modified: April, 17th 2012